Time;durP1;ratioP1;P1;durP2;ratioP2;P2;SDS_P1;SDS_P2;PMS_P1;PMS_P2;Temp;Humidity;BMP_temperature;BMP_pressure;BME280_temperature;BME280_humidity;BME280_pressure;Samples;Min_cycle;Max_cycle;Signal;HPM_P1;HPM_P2
2021/06/26 00:00:58;;;;;;;31.13;20.08;;;15.70;99.90;;;;;;5111426;27;20225;-60
2021/06/26 00:03:28;;;;;;;35.20;21.70;;;15.70;99.90;;;;;;5107054;27;20023;-60
2021/06/26 00:05:54;;;;;;;32.67;20.42;;;15.70;99.90;;;;;;5118213;27;20031;-60
2021/06/26 00:08:21;;;;;;;33.58;21.55;;;15.60;99.90;;;;;;5111714;27;20027;-60
2021/06/26 00:10:47;;;;;;;38.20;21.98;;;15.60;99.90;;;;;;5112219;27;20069;-58
2021/06/26 00:13:14;;;;;;;34.40;20.83;;;15.50;99.90;;;;;;5121424;27;20110;-61
2021/06/26 00:15:40;;;;;;;39.42;22.63;;;15.50;99.90;;;;;;5093743;28;20111;-60
2021/06/26 00:18:05;;;;;;;41.47;23.08;;;15.40;99.90;;;;;;5107187;28;20126;-60
2021/06/26 00:20:31;;;;;;;33.38;22.98;;;15.40;99.90;;;;;;5110344;27;20075;-60
2021/06/26 00:22:57;;;;;;;42.05;22.75;;;15.40;99.90;;;;;;5107460;28;20035;-60
2021/06/26 00:25:23;;;;;;;37.28;23.60;;;15.30;99.90;;;;;;5112410;28;20501;-59
2021/06/26 00:27:52;;;;;;;48.05;25.27;;;15.30;99.90;;;;;;5121360;28;20482;-60
2021/06/26 00:30:19;;;;;;;37.17;23.50;;;15.30;99.90;;;;;;5115033;28;20454;-60
2021/06/26 00:32:45;;;;;;;37.53;24.52;;;15.20;99.90;;;;;;5115840;28;20016;-61
2021/06/26 00:35:12;;;;;;;38.88;23.88;;;15.20;99.90;;;;;;5115897;28;20371;-61
2021/06/26 00:37:38;;;;;;;40.70;25.42;;;15.20;99.90;;;;;;5114476;28;20382;-61
2021/06/26 00:40:05;;;;;;;39.25;24.70;;;15.20;99.90;;;;;;5110713;28;20031;-59
2021/06/26 00:42:32;;;;;;;40.33;25.45;;;15.10;99.90;;;;;;5122213;28;20023;-60
2021/06/26 00:44:58;;;;;;;39.90;23.85;;;15.10;99.90;;;;;;5112040;28;20011;-60
2021/06/26 00:47:24;;;;;;;39.75;25.10;;;15.10;99.90;;;;;;5092403;28;20693;-61
2021/06/26 00:49:50;;;;;;;36.60;24.60;;;15.10;99.90;;;;;;5112479;27;20019;-60
2021/06/26 00:52:15;;;;;;;41.72;25.73;;;15.10;99.90;;;;;;5113412;27;20383;-60
2021/06/26 00:54:41;;;;;;;40.70;25.67;;;15.10;99.90;;;;;;5115663;27;20507;-60
2021/06/26 00:57:07;;;;;;;41.00;24.70;;;15.00;99.90;;;;;;5114679;27;20371;-60
2021/06/26 00:59:33;;;;;;;41.78;25.80;;;15.00;99.90;;;;;;5116634;27;20431;-60
2021/06/26 01:01:59;;;;;;;41.63;24.48;;;15.00;99.90;;;;;;5115493;27;20126;-59
2021/06/26 01:04:24;;;;;;;42.45;27.40;;;14.90;99.90;;;;;;5117334;27;20041;-60
2021/06/26 01:06:50;;;;;;;53.47;27.42;;;14.90;99.90;;;;;;5113004;27;20050;-59
2021/06/26 01:09:16;;;;;;;42.70;25.60;;;14.90;99.90;;;;;;5118250;27;20094;-60
2021/06/26 01:11:42;;;;;;;42.97;27.50;;;14.90;99.90;;;;;;5114546;27;20038;-60
2021/06/26 01:14:07;;;;;;;42.92;27.08;;;14.90;99.90;;;;;;5115057;27;20456;-60
2021/06/26 01:16:33;;;;;;;45.90;26.27;;;14.80;99.90;;;;;;5114831;27;20111;-60
2021/06/26 01:18:58;;;;;;;38.80;26.73;;;14.80;99.90;;;;;;5115178;27;20059;-61
2021/06/26 01:21:24;;;;;;;40.45;26.10;;;14.80;99.90;;;;;;5114376;27;20415;-60
2021/06/26 01:23:52;;;;;;;46.20;27.55;;;14.70;99.90;;;;;;5114552;27;20368;-59
2021/06/26 01:26:19;;;;;;;44.55;27.40;;;14.70;99.90;;;;;;5117175;27;20031;-60
2021/06/26 01:28:45;;;;;;;40.65;26.73;;;14.70;99.90;;;;;;5115363;27;20024;-61
2021/06/26 01:31:10;;;;;;;43.03;26.55;;;14.70;99.90;;;;;;5114128;27;20084;-60
2021/06/26 01:33:36;;;;;;;45.85;27.50;;;14.70;99.90;;;;;;5120789;27;20102;-60
2021/06/26 01:36:02;;;;;;;46.08;27.55;;;14.70;99.90;;;;;;5120635;27;20406;-58
2021/06/26 01:38:27;;;;;;;43.35;27.85;;;14.70;99.90;;;;;;5117653;27;20027;-58
2021/06/26 01:40:53;;;;;;;43.90;28.05;;;14.70;99.90;;;;;;5119253;27;20031;-60
2021/06/26 01:43:19;;;;;;;50.75;28.95;;;14.60;99.90;;;;;;5096000;27;20047;-60
2021/06/26 01:45:45;;;;;;;57.15;30.50;;;14.60;99.90;;;;;;5116048;27;20028;-60
2021/06/26 01:48:10;;;;;;;54.88;30.77;;;14.60;99.90;;;;;;5115011;27;20023;-60
2021/06/26 01:50:36;;;;;;;54.92;29.45;;;14.60;99.90;;;;;;5113022;27;20024;-59
2021/06/26 01:53:02;;;;;;;48.83;29.17;;;14.50;99.90;;;;;;5114252;27;20031;-60
2021/06/26 01:55:28;;;;;;;50.30;28.50;;;14.50;99.90;;;;;;5114386;27;20469;-59
2021/06/26 01:57:54;;;;;;;43.60;26.10;;;14.60;99.90;;;;;;5113731;27;20031;-60
2021/06/26 02:00:23;;;;;;;45.65;27.05;;;14.60;99.90;;;;;;5112300;27;20088;-61
2021/06/26 02:02:50;;;;;;;42.60;26.20;;;14.70;99.90;;;;;;5113308;27;20497;-59
2021/06/26 02:05:17;;;;;;;43.05;26.27;;;14.70;99.90;;;;;;5121280;27;20030;-60
2021/06/26 02:07:47;;;;;;;40.47;26.23;;;14.60;99.90;;;;;;5111994;27;20031;-60
2021/06/26 02:10:13;;;;;;;46.45;27.88;;;14.60;99.90;;;;;;5108907;27;20019;-60
2021/06/26 02:12:39;;;;;;;46.78;29.08;;;14.50;99.90;;;;;;5114745;27;20475;-60
2021/06/26 02:15:05;;;;;;;50.63;30.10;;;14.50;99.90;;;;;;5114805;27;20026;-60
2021/06/26 02:17:31;;;;;;;54.78;32.38;;;14.40;99.90;;;;;;5119304;27;20499;-61
2021/06/26 02:19:57;;;;;;;50.80;31.50;;;14.40;99.90;;;;;;5114394;27;20031;-60
2021/06/26 02:22:22;;;;;;;59.20;32.42;;;14.40;99.90;;;;;;5112923;27;20054;-60
2021/06/26 02:24:48;;;;;;;61.53;32.83;;;14.30;99.90;;;;;;5120862;27;20144;-59
2021/06/26 02:27:14;;;;;;;55.25;31.23;;;14.30;99.90;;;;;;5117090;27;21764;-60
2021/06/26 02:29:39;;;;;;;53.42;31.65;;;14.20;99.90;;;;;;5116659;27;20027;-55
2021/06/26 02:32:05;;;;;;;51.97;29.20;;;14.20;99.90;;;;;;5116441;27;20019;-60
2021/06/26 02:34:31;;;;;;;49.63;28.55;;;14.20;99.90;;;;;;5118830;27;20494;-60
2021/06/26 02:36:57;;;;;;;43.65;27.90;;;14.30;99.90;;;;;;5113649;27;20035;-60
2021/06/26 02:39:23;;;;;;;47.30;27.80;;;14.40;99.90;;;;;;5115897;27;20478;-60
2021/06/26 02:41:48;;;;;;;52.65;29.60;;;14.40;99.90;;;;;;5117935;27;20118;-60
2021/06/26 02:44:14;;;;;;;49.83;27.90;;;14.40;99.90;;;;;;5116597;27;20039;-58
2021/06/26 02:46:40;;;;;;;46.10;28.42;;;14.40;99.90;;;;;;5112647;27;20038;-59
2021/06/26 02:49:05;;;;;;;46.22;28.38;;;14.40;99.90;;;;;;5118047;27;20945;-60
2021/06/26 02:51:31;;;;;;;56.47;29.60;;;14.30;99.90;;;;;;5115800;27;20023;-59
2021/06/26 02:53:57;;;;;;;48.78;29.48;;;14.20;99.90;;;;;;5110455;27;20022;-60
2021/06/26 02:56:22;;;;;;;47.45;29.05;;;14.20;99.90;;;;;;5123659;27;20493;-60
2021/06/26 02:58:48;;;;;;;51.55;30.73;;;14.20;99.90;;;;;;5113459;27;20081;-60
2021/06/26 03:01:13;;;;;;;58.53;33.53;;;14.10;99.90;;;;;;5110941;27;20039;-60
2021/06/26 03:03:39;;;;;;;62.38;33.25;;;14.00;99.90;;;;;;5116320;27;20522;-59
2021/06/26 03:06:04;;;;;;;59.50;33.92;;;14.00;99.90;;;;;;5113493;27;20046;-59
2021/06/26 03:08:30;;;;;;;55.85;33.05;;;14.00;99.90;;;;;;5112253;27;20031;-60
2021/06/26 03:10:56;;;;;;;56.13;31.48;;;13.90;99.90;;;;;;5110995;27;20026;-58
2021/06/26 03:13:21;;;;;;;49.70;30.92;;;13.90;99.90;;;;;;5112558;27;20028;-59
2021/06/26 03:15:47;;;;;;;55.03;31.63;;;13.90;99.90;;;;;;5115277;27;20028;-60
2021/06/26 03:18:13;;;;;;;57.75;33.00;;;13.90;99.90;;;;;;5109394;27;20069;-61
2021/06/26 03:20:39;;;;;;;56.30;34.25;;;13.90;99.90;;;;;;5109493;27;20031;-61
2021/06/26 03:23:05;;;;;;;61.03;32.75;;;13.90;99.90;;;;;;5118555;27;20477;-60
2021/06/26 03:25:31;;;;;;;53.92;30.35;;;13.90;99.90;;;;;;5110493;27;20055;-61
2021/06/26 03:27:57;;;;;;;51.65;30.05;;;13.90;99.90;;;;;;5114901;27;20047;-60
2021/06/26 03:30:22;;;;;;;59.03;31.55;;;14.00;99.90;;;;;;5113781;27;20030;-61
2021/06/26 03:32:48;;;;;;;59.05;31.48;;;14.00;99.90;;;;;;5123232;27;20520;-58
2021/06/26 03:35:14;;;;;;;62.40;32.13;;;13.90;99.90;;;;;;5119612;27;20039;-61
2021/06/26 03:37:40;;;;;;;60.53;31.80;;;13.90;99.90;;;;;;5118995;27;20028;-61
2021/06/26 03:40:06;;;;;;;55.25;33.30;;;13.90;99.90;;;;;;5114195;27;20059;-61
2021/06/26 03:42:32;;;;;;;56.65;30.90;;;13.80;99.90;;;;;;5110873;27;20046;-61
2021/06/26 03:44:57;;;;;;;56.10;31.35;;;13.80;99.90;;;;;;5111349;27;20582;-61
2021/06/26 03:47:25;;;;;;;58.45;33.22;;;13.80;99.90;;;;;;5116708;27;20047;-61
2021/06/26 03:49:50;;;;;;;61.30;36.47;;;13.90;99.90;;;;;;5110258;27;20024;-60
2021/06/26 03:52:16;;;;;;;64.03;35.65;;;13.80;99.90;;;;;;5111262;27;20089;-60
2021/06/26 03:54:41;;;;;;;58.70;34.03;;;13.80;99.90;;;;;;5117290;27;20031;-61
2021/06/26 03:57:07;;;;;;;58.20;33.95;;;13.80;99.90;;;;;;5116036;27;20055;-58
2021/06/26 03:59:32;;;;;;;63.53;35.83;;;13.80;99.90;;;;;;5113263;27;20035;-61
2021/06/26 04:01:58;;;;;;;61.40;36.30;;;13.80;99.90;;;;;;5112512;27;20410;-59
2021/06/26 04:04:24;;;;;;;63.05;36.80;;;13.80;99.90;;;;;;5114528;27;20410;-61
2021/06/26 04:06:49;;;;;;;61.50;35.58;;;13.90;99.90;;;;;;5117150;27;20059;-61
2021/06/26 04:09:15;;;;;;;63.00;35.78;;;13.80;99.90;;;;;;5112725;27;20027;-61
2021/06/26 04:11:40;;;;;;;56.65;32.92;;;13.90;99.90;;;;;;5116363;27;20019;-60
2021/06/26 04:14:06;;;;;;;63.40;36.58;;;13.90;99.90;;;;;;5118754;27;20035;-61
2021/06/26 04:16:32;;;;;;;59.63;33.65;;;13.90;99.90;;;;;;5111856;27;20055;-58
2021/06/26 04:18:57;;;;;;;59.30;35.70;;;13.90;99.90;;;;;;5110817;28;20110;-61
2021/06/26 04:21:23;;;;;;;56.33;34.15;;;14.00;99.90;;;;;;5117012;27;20043;-58
2021/06/26 04:23:49;;;;;;;57.50;35.05;;;14.00;99.90;;;;;;5110120;28;20024;-61
2021/06/26 04:26:14;;;;;;;52.15;32.22;;;14.00;99.90;;;;;;5112930;28;20027;-60
2021/06/26 04:28:40;;;;;;;49.50;32.13;;;14.10;99.90;;;;;;5111607;28;20028;-59
2021/06/26 04:31:06;;;;;;;52.90;33.40;;;14.10;99.90;;;;;;5113710;28;20075;-61
2021/06/26 04:33:31;;;;;;;49.00;30.52;;;14.10;99.90;;;;;;5111908;28;20107;-59
2021/06/26 04:35:57;;;;;;;51.80;32.92;;;14.20;99.90;;;;;;5117923;28;20030;-60
2021/06/26 04:38:22;;;;;;;50.40;30.60;;;14.20;99.90;;;;;;5116515;28;20030;-61
2021/06/26 04:40:52;;;;;;;44.83;29.38;;;14.30;99.90;;;;;;5114530;28;20077;-61
2021/06/26 04:43:19;;;;;;;43.13;27.70;;;14.40;99.90;;;;;;5117777;22;20055;-63
2021/06/26 04:45:45;;;;;;;41.97;28.50;;;14.40;99.90;;;;;;5095172;28;20112;-61
2021/06/26 04:48:11;;;;;;;44.70;29.15;;;14.50;99.90;;;;;;5089329;28;20047;-61
2021/06/26 04:50:37;;;;;;;42.55;28.55;;;14.50;99.90;;;;;;5090497;28;20032;-61
2021/06/26 04:53:03;;;;;;;49.45;28.63;;;14.50;99.90;;;;;;5089610;28;20012;-63
2021/06/26 04:55:29;;;;;;;61.85;31.08;;;14.60;99.90;;;;;;5087713;28;20398;-62
2021/06/26 04:57:55;;;;;;;43.35;28.25;;;14.60;99.90;;;;;;5087364;28;20507;-62
2021/06/26 05:00:21;;;;;;;44.88;26.67;;;14.60;99.90;;;;;;5086604;28;20036;-61
2021/06/26 05:02:47;;;;;;;40.60;26.75;;;14.60;99.90;;;;;;5080763;28;20540;-62
2021/06/26 05:05:12;;;;;;;41.40;27.13;;;14.70;99.90;;;;;;5086376;28;20036;-62
2021/06/26 05:07:38;;;;;;;43.08;27.05;;;14.60;99.90;;;;;;5089184;28;20032;-61
2021/06/26 05:10:04;;;;;;;41.95;24.83;;;14.70;99.90;;;;;;5087799;28;20498;-62
2021/06/26 05:12:30;;;;;;;36.33;24.33;;;14.80;99.90;;;;;;5085850;28;20020;-60
2021/06/26 05:14:55;;;;;;;36.53;25.70;;;14.80;99.90;;;;;;5087743;28;20388;-60
2021/06/26 05:17:21;;;;;;;36.90;25.20;;;14.80;99.90;;;;;;5088900;28;20036;-60
2021/06/26 05:19:46;;;;;;;35.78;25.02;;;14.80;99.90;;;;;;5088725;28;20020;-62
2021/06/26 05:22:13;;;;;;;39.42;24.52;;;14.80;99.90;;;;;;5086620;28;20078;-62
2021/06/26 05:24:39;;;;;;;40.72;24.90;;;14.80;99.90;;;;;;5087973;28;20030;-62
2021/06/26 05:27:05;;;;;;;39.40;23.67;;;14.80;99.90;;;;;;5087764;28;20035;-63
2021/06/26 05:29:32;;;;;;;36.97;24.77;;;14.90;99.90;;;;;;5088309;28;20024;-62
2021/06/26 05:31:57;;;;;;;41.15;26.52;;;14.90;99.90;;;;;;5086527;28;20020;-60
2021/06/26 05:34:23;;;;;;;42.35;26.95;;;14.90;99.90;;;;;;5090772;28;20035;-61
2021/06/26 05:36:49;;;;;;;35.55;25.50;;;15.00;99.90;;;;;;5091606;28;20026;-63
2021/06/26 05:39:14;;;;;;;38.55;25.05;;;15.00;99.90;;;;;;5092072;28;20043;-63
2021/06/26 05:41:40;;;;;;;40.90;26.17;;;15.00;99.90;;;;;;5090616;28;20020;-63
2021/06/26 05:44:06;;;;;;;37.67;24.95;;;15.10;99.90;;;;;;5090031;28;20503;-62
2021/06/26 05:46:31;;;;;;;39.00;24.95;;;15.10;99.90;;;;;;5090896;28;20036;-63
2021/06/26 05:48:57;;;;;;;38.05;25.02;;;15.20;99.90;;;;;;5091855;28;20498;-63
2021/06/26 05:51:22;;;;;;;38.50;25.13;;;15.30;99.90;;;;;;5091061;28;20414;-61
2021/06/26 05:53:49;;;;;;;38.22;24.63;;;15.30;99.90;;;;;;5091206;28;20453;-60
2021/06/26 05:56:15;;;;;;;39.13;24.23;;;15.40;99.90;;;;;;5091484;28;20567;-62
2021/06/26 05:58:40;;;;;;;36.70;24.30;;;15.50;99.90;;;;;;5090572;28;20106;-63
2021/06/26 06:01:10;;;;;;;33.95;22.88;;;15.60;99.90;;;;;;5087119;28;20019;-63
2021/06/26 06:03:36;;;;;;;33.30;22.95;;;15.60;99.90;;;;;;5086790;28;20077;-63
2021/06/26 06:06:01;;;;;;;32.33;22.70;;;15.70;99.90;;;;;;5090580;28;20032;-63
2021/06/26 06:08:27;;;;;;;32.22;22.35;;;15.80;99.90;;;;;;5090464;28;20592;-61
2021/06/26 06:10:53;;;;;;;37.28;22.17;;;15.90;99.90;;;;;;5090266;28;20031;-63
2021/06/26 06:13:20;;;;;;;34.10;22.80;;;16.00;99.90;;;;;;5089036;28;20032;-63
2021/06/26 06:15:48;;;;;;;32.67;22.63;;;16.00;99.90;;;;;;5087899;28;20070;-63
2021/06/26 06:18:14;;;;;;;37.28;24.98;;;16.10;99.90;;;;;;5090071;28;20024;-64
2021/06/26 06:20:40;;;;;;;32.08;22.88;;;16.20;99.90;;;;;;5090046;28;20024;-63
2021/06/26 06:23:06;;;;;;;37.17;22.67;;;16.20;99.90;;;;;;5090570;28;20032;-63
2021/06/26 06:25:33;;;;;;;33.28;22.98;;;16.30;99.90;;;;;;5090594;28;20028;-63
2021/06/26 06:28:01;;;;;;;35.53;21.48;;;16.40;99.90;;;;;;5089477;28;20024;-63
2021/06/26 06:30:27;;;;;;;35.20;21.77;;;16.50;99.90;;;;;;5089556;28;20501;-64
2021/06/26 06:32:52;;;;;;;31.88;22.02;;;16.50;99.90;;;;;;5090128;28;20027;-63
2021/06/26 06:35:18;;;;;;;31.75;23.55;;;16.60;99.90;;;;;;5089858;28;20294;-61
2021/06/26 06:37:43;;;;;;;31.23;21.70;;;16.70;99.90;;;;;;5090486;28;20032;-63
2021/06/26 06:40:13;;;;;;;32.90;22.85;;;16.80;99.90;;;;;;5089598;28;20040;-64
2021/06/26 06:42:39;;;;;;;38.28;23.70;;;16.80;99.90;;;;;;5089391;28;20032;-63
2021/06/26 06:45:06;;;;;;;33.17;23.88;;;16.90;99.90;;;;;;5088015;28;20027;-59
2021/06/26 06:47:31;;;;;;;41.40;26.83;;;17.00;99.90;;;;;;5088827;28;20027;-62
2021/06/26 06:49:57;;;;;;;38.60;27.60;;;17.10;99.90;;;;;;5089132;28;20024;-61
2021/06/26 06:52:23;;;;;;;47.25;29.55;;;17.20;99.90;;;;;;5085638;28;20408;-61
2021/06/26 06:54:48;;;;;;;43.72;27.98;;;17.30;99.90;;;;;;5090535;28;20028;-61
2021/06/26 06:57:14;;;;;;;39.83;26.92;;;17.30;99.90;;;;;;5084373;28;20058;-62
2021/06/26 06:59:40;;;;;;;49.78;30.05;;;17.40;99.90;;;;;;5088747;28;20081;-63
2021/06/26 07:02:05;;;;;;;51.55;31.08;;;17.50;99.90;;;;;;5081900;28;20038;-62
2021/06/26 07:04:31;;;;;;;55.55;31.48;;;17.60;99.90;;;;;;5081657;28;20447;-62
2021/06/26 07:06:57;;;;;;;52.80;31.83;;;17.70;99.90;;;;;;5084722;28;20116;-62
2021/06/26 07:09:23;;;;;;;45.95;29.70;;;17.70;99.90;;;;;;5087247;28;20023;-62
2021/06/26 07:11:49;;;;;;;54.35;31.00;;;17.70;99.90;;;;;;5080948;28;20075;-59
2021/06/26 07:14:14;;;;;;;46.50;30.35;;;17.80;99.90;;;;;;5083088;28;20055;-61
2021/06/26 07:16:40;;;;;;;49.92;30.88;;;17.90;99.90;;;;;;5083803;28;20083;-62
2021/06/26 07:19:05;;;;;;;51.03;30.38;;;18.00;99.90;;;;;;5066248;28;20031;-62
2021/06/26 07:21:32;;;;;;;54.20;31.98;;;18.10;99.90;;;;;;5081274;28;20032;-62
2021/06/26 07:23:58;;;;;;;53.00;30.42;;;18.10;99.90;;;;;;5081427;28;20024;-61
2021/06/26 07:26:24;;;;;;;49.53;32.65;;;18.20;99.90;;;;;;5079704;28;20543;-61
2021/06/26 07:28:49;;;;;;;57.13;34.72;;;18.30;99.90;;;;;;5082015;28;20020;-62
2021/06/26 07:31:15;;;;;;;51.00;31.85;;;18.30;99.90;;;;;;5081150;28;20423;-62
2021/06/26 07:33:41;;;;;;;52.42;32.83;;;18.40;99.90;;;;;;5082121;28;20080;-63
2021/06/26 07:36:06;;;;;;;56.67;34.50;;;18.50;99.90;;;;;;5082058;28;20657;-63
2021/06/26 07:38:33;;;;;;;53.60;33.00;;;18.60;99.90;;;;;;5078856;28;20051;-64
2021/06/26 07:40:58;;;;;;;51.20;30.52;;;18.60;99.90;;;;;;5078417;28;20139;-63
2021/06/26 07:43:25;;;;;;;53.05;30.38;;;18.70;99.90;;;;;;5078959;28;20114;-63
2021/06/26 07:45:51;;;;;;;54.90;31.52;;;18.80;99.90;;;;;;5079634;28;20574;-63
2021/06/26 07:48:16;;;;;;;55.42;33.22;;;18.90;99.90;;;;;;5078785;28;20114;-64
2021/06/26 07:50:42;;;;;;;50.17;31.45;;;19.00;99.90;;;;;;5079201;28;20040;-62
2021/06/26 07:53:07;;;;;;;43.50;28.60;;;19.10;99.90;;;;;;5080868;28;20123;-63
2021/06/26 07:55:34;;;;;;;51.47;32.72;;;19.20;99.90;;;;;;5079759;28;20106;-61
2021/06/26 07:57:59;;;;;;;50.95;30.25;;;19.30;99.90;;;;;;5085568;28;20395;-63
2021/06/26 08:00:25;;;;;;;51.50;30.80;;;19.40;99.90;;;;;;5088307;28;20127;-62
2021/06/26 08:02:50;;;;;;;54.50;32.80;;;19.40;99.90;;;;;;5089380;28;20046;-63
2021/06/26 08:05:16;;;;;;;53.65;29.65;;;19.50;99.90;;;;;;5080446;28;20020;-61
2021/06/26 08:07:41;;;;;;;45.17;30.15;;;19.50;99.90;;;;;;5081172;28;20028;-62
2021/06/26 08:10:07;;;;;;;51.25;31.48;;;19.70;99.90;;;;;;5081382;28;20501;-60
2021/06/26 08:12:33;;;;;;;46.60;28.15;;;19.80;99.90;;;;;;5081307;28;20064;-61
2021/06/26 08:15:01;;;;;;;44.90;28.42;;;19.80;99.90;;;;;;5063378;28;20450;-62
2021/06/26 08:17:26;;;;;;;43.60;29.67;;;19.90;99.90;;;;;;5082855;28;20053;-61
2021/06/26 08:19:52;;;;;;;44.63;29.73;;;20.00;99.90;;;;;;5077633;28;20427;-59
2021/06/26 08:22:18;;;;;;;45.88;28.73;;;20.10;99.90;;;;;;5081231;28;20036;-59
2021/06/26 08:24:43;;;;;;;56.83;30.48;;;20.20;99.90;;;;;;5080876;28;20029;-62
2021/06/26 08:27:09;;;;;;;44.40;29.00;;;20.30;99.90;;;;;;5087849;28;20071;-62
2021/06/26 08:29:34;;;;;;;47.03;30.85;;;20.30;99.90;;;;;;5088397;28;20423;-61
2021/06/26 08:32:00;;;;;;;46.22;28.77;;;20.40;99.90;;;;;;5066930;28;20024;-60
2021/06/26 08:34:27;;;;;;;41.38;26.38;;;20.50;99.90;;;;;;5087247;28;20099;-62
2021/06/26 08:36:52;;;;;;;45.88;28.30;;;20.50;99.90;;;;;;5085110;28;20039;-65
2021/06/26 08:39:21;;;;;;;41.83;28.35;;;20.70;99.90;;;;;;5079832;28;20024;-63
2021/06/26 08:41:49;;;;;;;45.20;26.58;;;20.80;99.90;;;;;;5085199;28;20407;-65
2021/06/26 08:44:17;;;;;;;49.63;26.63;;;21.00;99.90;;;;;;5086728;28;20039;-64
2021/06/26 08:46:46;;;;;;;43.95;28.27;;;21.00;99.90;;;;;;5085690;28;20550;-64
2021/06/26 08:49:12;;;;;;;39.20;27.27;;;21.10;99.90;;;;;;5080581;28;20031;-65
2021/06/26 08:51:38;;;;;;;44.55;26.88;;;21.20;99.90;;;;;;5086510;28;20028;-65
2021/06/26 08:54:11;;;;;;;36.65;23.05;;;21.20;99.90;;;;;;5087149;28;20774;-66
2021/06/26 08:56:36;;;;;;;43.28;25.15;;;21.30;99.90;;;;;;5087877;28;20410;-65
2021/06/26 08:59:02;;;;;;;38.88;26.52;;;21.50;99.90;;;;;;5087872;28;20020;-65
2021/06/26 09:01:28;;;;;;;37.85;24.02;;;21.60;99.90;;;;;;5087060;28;20034;-65
2021/06/26 09:04:17;;;;;;;41.28;24.40;;;21.70;99.90;;;;;;5086902;28;20026;-64
2021/06/26 09:06:50;;;;;;;48.20;25.42;;;21.80;99.90;;;;;;5085405;28;20024;-66
2021/06/26 09:09:16;;;;;;;41.72;25.88;;;21.90;99.90;;;;;;5090594;28;20020;-64
2021/06/26 09:11:41;;;;;;;32.63;22.05;;;21.90;99.90;;;;;;5090397;28;20027;-65
2021/06/26 09:14:20;;;;;;;28.00;18.08;;;22.10;99.90;;;;;;5091959;28;20132;-65
2021/06/26 09:16:52;;;;;;;29.15;18.63;;;22.20;99.90;;;;;;5091153;28;20028;-65
2021/06/26 09:19:19;;;;;;;30.85;19.30;;;22.30;99.90;;;;;;5091444;28;20463;-65
2021/06/26 09:22:09;;;;;;;28.13;18.38;;;22.40;99.90;;;;;;5085335;28;20094;-65
2021/06/26 09:24:43;;;;;;;25.65;16.75;;;22.30;99.90;;;;;;5090651;28;20020;-64
2021/06/26 09:27:10;;;;;;;;;;;22.30;99.90;;;;;;5087119;28;20029;-64
2021/06/26 09:29:36;;;;;;;20.25;12.95;;;22.50;99.90;;;;;;5086484;28;19908;-64
2021/06/26 09:32:04;;;;;;;18.20;12.73;;;22.70;99.90;;;;;;5083558;28;20021;-65
2021/06/26 09:34:43;;;;;;;21.40;12.32;;;22.90;99.90;;;;;;5083959;28;20008;-65
2021/06/26 09:37:11;;;;;;;21.45;14.38;;;23.20;99.90;;;;;;5089515;28;20064;-64
2021/06/26 09:39:42;;;;;;;23.75;13.13;;;23.40;99.90;;;;;;5087317;28;20020;-65
2021/06/26 09:42:16;;;;;;;19.15;11.30;;;23.60;99.90;;;;;;5086146;28;20479;-65
2021/06/26 09:45:04;;;;;;;17.77;11.40;;;23.90;99.90;;;;;;5087774;28;20044;-65
2021/06/26 09:47:34;;;;;;;21.25;11.60;;;23.90;99.90;;;;;;5091025;28;20115;-65
2021/06/26 09:50:14;;;;;;;19.27;11.18;;;23.90;99.90;;;;;;5089996;28;20017;-65
2021/06/26 09:52:45;;;;;;;13.35;10.63;;;23.70;99.90;;;;;;5088026;28;20016;-65
2021/06/26 09:55:34;;;;;;;14.70;10.48;;;23.90;99.90;;;;;;5090806;28;20031;-66
2021/06/26 09:58:08;;;;;;;15.32;10.70;;;24.00;99.90;;;;;;5088443;28;20030;-65
2021/06/26 10:00:34;;;;;;;14.63;9.73;;;24.20;99.90;;;;;;5086434;28;20024;-65
2021/06/26 10:03:00;;;;;;;15.45;10.07;;;24.40;99.90;;;;;;5090501;28;20020;-64
2021/06/26 10:05:26;;;;;;;11.95;8.65;;;24.50;99.90;;;;;;5090812;28;20028;-66
2021/06/26 10:07:53;;;;;;;13.88;9.65;;;24.70;99.90;;;;;;5090111;28;20055;-66
2021/06/26 10:10:23;;;;;;;15.35;11.30;;;24.80;99.90;;;;;;5089417;28;20020;-64
2021/06/26 10:12:50;;;;;;;11.88;9.20;;;25.00;99.90;;;;;;5089794;28;20032;-66
2021/06/26 10:15:20;;;;;;;13.38;8.55;;;25.00;99.90;;;;;;5088194;28;20034;-65
2021/06/26 10:17:46;;;;;;;11.88;9.68;;;25.10;99.90;;;;;;5089120;28;20077;-65
2021/06/26 10:20:14;;;;;;;12.15;8.57;;;25.40;99.90;;;;;;5089078;28;20035;-65
2021/06/26 10:22:45;;;;;;;12.98;9.45;;;25.30;99.90;;;;;;5089805;28;20073;-66
2021/06/26 10:25:12;;;;;;;18.40;9.07;;;25.20;99.90;;;;;;5084674;28;20051;-65
2021/06/26 10:27:38;;;;;;;13.05;8.35;;;25.10;99.90;;;;;;5090284;28;20031;-66
2021/06/26 10:30:19;;;;;;;12.05;9.02;;;24.80;99.90;;;;;;5090058;28;20081;-66
2021/06/26 10:32:58;;;;;;;14.88;9.05;;;24.60;99.90;;;;;;5090091;28;20028;-66
2021/06/26 10:35:25;;;;;;;13.30;10.18;;;24.40;99.90;;;;;;5090342;28;20031;-67
2021/06/26 10:38:12;;;;;;;17.67;9.93;;;24.20;99.90;;;;;;5090417;28;20036;-66
2021/06/26 10:40:40;;;;;;;17.02;9.82;;;24.10;99.90;;;;;;5089308;28;20054;-66
2021/06/26 10:43:17;;;;;;;12.05;9.98;;;24.10;99.90;;;;;;5107706;22;20832;-60
2021/06/26 10:45:45;;;;;;;12.23;9.82;;;23.90;99.90;;;;;;5103133;28;20027;-62
2021/06/26 10:48:16;;;;;;;13.68;10.63;;;23.80;99.90;;;;;;5110516;28;20024;-62
2021/06/26 10:50:54;;;;;;;16.13;11.20;;;24.20;99.90;;;;;;5104084;28;20039;-62
2021/06/26 10:53:31;;;;;;;20.05;10.90;;;24.60;99.90;;;;;;5111320;28;20440;-63
2021/06/26 10:56:11;;;;;;;13.80;9.52;;;24.80;99.90;;;;;;5111483;28;20566;-62
2021/06/26 10:58:40;;;;;;;13.90;9.98;;;25.20;99.90;;;;;;5094382;28;20128;-63
2021/06/26 11:01:22;;;;;;;17.58;11.00;;;24.90;99.90;;;;;;5108919;28;20487;-63
2021/06/26 11:04:06;;;;;;;15.60;11.50;;;24.70;99.90;;;;;;5098881;28;20050;-62
2021/06/26 11:06:31;;;;;;;14.48;10.15;;;24.50;99.90;;;;;;5093537;28;20114;-63
2021/06/26 11:09:03;;;;;;;12.18;9.23;;;24.40;99.90;;;;;;5101751;28;20112;-63
2021/06/26 11:11:38;;;;;;;14.02;9.75;;;24.30;99.90;;;;;;5094024;28;20035;-63
2021/06/26 11:14:33;;;;;;;16.75;10.02;;;24.20;99.90;;;;;;5101658;28;20027;-63
2021/06/26 11:16:59;;;;;;;13.05;9.65;;;24.00;99.90;;;;;;5105055;28;20510;-63
2021/06/26 11:19:32;;;;;;;16.67;9.80;;;23.90;99.90;;;;;;5110803;28;20028;-62
2021/06/26 11:21:59;;;;;;;12.47;9.40;;;23.80;99.90;;;;;;5110985;28;20490;-63
2021/06/26 11:24:39;;;;;;;15.18;9.38;;;23.90;99.90;;;;;;5099223;28;20821;-63
2021/06/26 11:27:06;;;;;;;15.45;9.95;;;24.00;99.90;;;;;;5087020;28;20403;-61
2021/06/26 11:29:37;;;;;;;13.13;9.98;;;24.10;99.90;;;;;;5092439;28;20031;-63
2021/06/26 11:32:24;;;;;;;10.68;8.07;;;24.20;99.90;;;;;;5084536;28;20028;-62
2021/06/26 11:35:07;;;;;;;10.15;8.52;;;24.10;99.90;;;;;;5088366;28;20060;-63
2021/06/26 11:37:40;;;;;;;12.10;8.30;;;24.20;99.90;;;;;;5092649;28;20111;-63
2021/06/26 11:40:15;;;;;;;11.60;8.30;;;24.20;99.90;;;;;;5083377;28;20080;-60
2021/06/26 11:43:02;;;;;;;13.18;8.73;;;24.40;99.90;;;;;;5088468;28;20020;-62
2021/06/26 11:45:36;;;;;;;17.30;8.70;;;24.80;99.90;;;;;;5084705;28;20032;-63
2021/06/26 11:48:08;;;;;;;;;;;24.90;99.90;;;;;;5089487;28;20122;-62
2021/06/26 11:50:46;;;;;;;9.77;7.47;;;25.10;99.90;;;;;;5080972;28;19908;-62
2021/06/26 11:53:13;;;;;;;13.20;8.05;;;25.50;99.90;;;;;;5091533;28;20394;-62
2021/06/26 11:56:03;;;;;;;10.40;7.60;;;26.00;98.60;;;;;;5082238;28;20024;-63
2021/06/26 11:58:45;;;;;;;11.25;7.93;;;26.00;99.90;;;;;;5083602;28;20097;-62
2021/06/26 12:01:15;;;;;;;10.50;7.78;;;25.50;99.90;;;;;;5088455;28;20047;-63
2021/06/26 12:03:42;;;;;;;11.68;7.78;;;25.40;99.90;;;;;;5086262;28;20051;-63
2021/06/26 12:06:13;;;;;;;11.63;7.68;;;25.20;99.90;;;;;;5073956;28;20028;-63
2021/06/26 12:08:52;;;;;;;11.93;7.75;;;25.40;99.90;;;;;;5087061;28;20024;-63
2021/06/26 12:11:35;;;;;;;9.43;7.60;;;25.50;99.90;;;;;;5095182;28;20023;-63
2021/06/26 12:14:03;;;;;;;13.30;7.90;;;25.50;99.90;;;;;;5071630;28;20061;-59
2021/06/26 12:16:37;;;;;;;12.25;7.53;;;25.30;99.90;;;;;;5072726;28;20024;-60
2021/06/26 12:19:08;;;;;;;11.32;6.68;;;25.50;99.90;;;;;;5071170;28;20031;-60
2021/06/26 12:21:52;;;;;;;12.15;7.57;;;26.10;99.40;;;;;;5085957;28;20496;-57
2021/06/26 12:24:36;;;;;;;10.48;8.15;;;26.10;99.90;;;;;;5067115;28;20029;-60
2021/06/26 12:27:05;;;;;;;9.45;7.25;;;25.30;99.90;;;;;;5088623;28;20789;-61
2021/06/26 12:29:30;;;;;;;10.77;8.00;;;25.20;99.90;;;;;;5085710;28;20034;-60
2021/06/26 12:31:56;;;;;;;14.07;8.57;;;25.20;99.90;;;;;;5079892;28;20025;-63